sensor_id;sensor_type;location;lat;lon;timestamp;P1;durP1;ratioP1;P2;durP2;ratioP2
30723;SDS011;17473;52.286;20.930;2022-09-03T00:02:01;7.85;;;3.40;;
30723;SDS011;17473;52.286;20.930;2022-09-03T00:05:02;8.63;;;3.30;;
30723;SDS011;17473;52.286;20.930;2022-09-03T00:10:28;6.78;;;3.28;;
30723;SDS011;17473;52.286;20.930;2022-09-03T00:14:09;6.40;;;3.83;;
30723;SDS011;17473;52.286;20.930;2022-09-03T00:16:21;7.03;;;2.57;;
30723;SDS011;17473;52.286;20.930;2022-09-03T00:18:57;7.73;;;3.27;;
30723;SDS011;17473;52.286;20.930;2022-09-03T00:21:39;8.63;;;3.72;;
30723;SDS011;17473;52.286;20.930;2022-09-03T00:24:13;5.10;;;3.27;;
30723;SDS011;17473;52.286;20.930;2022-09-03T00:26:44;4.93;;;2.93;;
30723;SDS011;17473;52.286;20.930;2022-09-03T00:29:18;7.97;;;3.67;;
30723;SDS011;17473;52.286;20.930;2022-09-03T00:31:57;7.47;;;3.33;;
30723;SDS011;17473;52.286;20.930;2022-09-03T00:34:35;9.87;;;3.67;;
30723;SDS011;17473;52.286;20.930;2022-09-03T00:37:09;12.17;;;3.03;;
30723;SDS011;17473;52.286;20.930;2022-09-03T00:39:40;6.53;;;3.20;;
30723;SDS011;17473;52.286;20.930;2022-09-03T00:45:21;11.00;;;3.20;;
30723;SDS011;17473;52.286;20.930;2022-09-03T00:48:02;7.90;;;3.13;;
30723;SDS011;17473;52.286;20.930;2022-09-03T00:51:20;6.33;;;3.20;;
30723;SDS011;17473;52.286;20.930;2022-09-03T00:54:03;5.47;;;2.77;;
30723;SDS011;17473;52.286;20.930;2022-09-03T01:00:14;7.30;;;2.90;;
30723;SDS011;17473;52.286;20.930;2022-09-03T01:03:18;6.93;;;2.97;;
30723;SDS011;17473;52.286;20.930;2022-09-03T01:06:45;4.13;;;2.73;;
30723;SDS011;17473;52.286;20.930;2022-09-03T01:09:56;6.30;;;3.30;;
30723;SDS011;17473;52.286;20.930;2022-09-03T01:13:10;11.50;;;4.50;;
30723;SDS011;17473;52.286;20.930;2022-09-03T01:30:11;6.23;;;2.90;;
30723;SDS011;17473;52.286;20.930;2022-09-03T01:33:20;7.37;;;3.00;;
30723;SDS011;17473;52.286;20.930;2022-09-03T01:36:36;7.83;;;3.20;;
30723;SDS011;17473;52.286;20.930;2022-09-03T01:43:23;10.00;;;3.53;;
30723;SDS011;17473;52.286;20.930;2022-09-03T01:46:40;3.97;;;2.70;;
30723;SDS011;17473;52.286;20.930;2022-09-03T01:49:41;10.40;;;4.03;;
30723;SDS011;17473;52.286;20.930;2022-09-03T02:02:23;14.10;;;3.20;;
30723;SDS011;17473;52.286;20.930;2022-09-03T02:05:20;12.77;;;3.23;;
30723;SDS011;17473;52.286;20.930;2022-09-03T02:08:18;10.10;;;4.13;;
30723;SDS011;17473;52.286;20.930;2022-09-03T02:11:13;13.20;;;3.37;;
30723;SDS011;17473;52.286;20.930;2022-09-03T02:14:08;7.33;;;2.83;;
30723;SDS011;17473;52.286;20.930;2022-09-03T02:17:03;5.67;;;3.27;;
30723;SDS011;17473;52.286;20.930;2022-09-03T02:20:00;6.03;;;2.70;;
30723;SDS011;17473;52.286;20.930;2022-09-03T02:26:00;6.17;;;2.90;;
30723;SDS011;17473;52.286;20.930;2022-09-03T02:28:29;4.70;;;3.30;;
30723;SDS011;17473;52.286;20.930;2022-09-03T02:31:24;5.10;;;3.23;;
30723;SDS011;17473;52.286;20.930;2022-09-03T02:34:20;6.93;;;2.70;;
30723;SDS011;17473;52.286;20.930;2022-09-03T02:37:16;7.17;;;3.30;;
30723;SDS011;17473;52.286;20.930;2022-09-03T02:40:12;6.27;;;3.10;;
30723;SDS011;17473;52.286;20.930;2022-09-03T02:43:08;10.97;;;3.07;;
30723;SDS011;17473;52.286;20.930;2022-09-03T02:46:13;6.50;;;3.23;;
30723;SDS011;17473;52.286;20.930;2022-09-03T02:49:14;10.87;;;3.20;;
30723;SDS011;17473;52.286;20.930;2022-09-03T02:52:09;8.00;;;3.23;;
30723;SDS011;17473;52.286;20.930;2022-09-03T02:58:04;6.57;;;3.23;;
30723;SDS011;17473;52.286;20.930;2022-09-03T03:00:32;8.07;;;3.10;;
30723;SDS011;17473;52.286;20.930;2022-09-03T03:03:26;10.57;;;2.67;;
30723;SDS011;17473;52.286;20.930;2022-09-03T03:06:22;6.30;;;3.33;;
30723;SDS011;17473;52.286;20.930;2022-09-03T03:09:16;9.13;;;3.10;;
30723;SDS011;17473;52.286;20.930;2022-09-03T03:12:11;6.23;;;3.67;;
30723;SDS011;17473;52.286;20.930;2022-09-03T03:15:06;9.37;;;3.10;;
30723;SDS011;17473;52.286;20.930;2022-09-03T03:18:01;7.93;;;3.40;;
30723;SDS011;17473;52.286;20.930;2022-09-03T03:20:55;8.27;;;3.30;;
30723;SDS011;17473;52.286;20.930;2022-09-03T03:23:50;4.50;;;3.40;;
30723;SDS011;17473;52.286;20.930;2022-09-03T03:26:45;6.03;;;3.30;;
30723;SDS011;17473;52.286;20.930;2022-09-03T03:29:39;5.50;;;3.00;;
30723;SDS011;17473;52.286;20.930;2022-09-03T03:32:33;9.33;;;3.37;;
30723;SDS011;17473;52.286;20.930;2022-09-03T03:35:31;7.37;;;3.30;;
30723;SDS011;17473;52.286;20.930;2022-09-03T03:38:25;6.53;;;3.03;;
30723;SDS011;17473;52.286;20.930;2022-09-03T03:41:21;7.63;;;3.13;;
30723;SDS011;17473;52.286;20.930;2022-09-03T03:44:17;4.97;;;3.03;;
30723;SDS011;17473;52.286;20.930;2022-09-03T03:47:13;8.13;;;3.03;;
30723;SDS011;17473;52.286;20.930;2022-09-03T03:50:09;7.00;;;3.63;;
30723;SDS011;17473;52.286;20.930;2022-09-03T03:53:03;8.33;;;3.63;;
30723;SDS011;17473;52.286;20.930;2022-09-03T05:06:45;7.65;;;3.22;;
30723;SDS011;17473;52.286;20.930;2022-09-03T05:09:12;5.25;;;2.97;;
30723;SDS011;17473;52.286;20.930;2022-09-03T05:12:07;7.43;;;2.88;;
30723;SDS011;17473;52.286;20.930;2022-09-03T05:15:01;10.27;;;2.90;;
30723;SDS011;17473;52.286;20.930;2022-09-03T05:17:58;6.85;;;2.75;;
30723;SDS011;17473;52.286;20.930;2022-09-03T05:20:58;12.40;;;2.92;;
30723;SDS011;17473;52.286;20.930;2022-09-03T05:23:54;5.93;;;2.50;;
30723;SDS011;17473;52.286;20.930;2022-09-03T05:26:49;6.78;;;2.67;;
30723;SDS011;17473;52.286;20.930;2022-09-03T05:29:44;7.00;;;2.60;;
30723;SDS011;17473;52.286;20.930;2022-09-03T05:32:39;12.48;;;3.65;;
30723;SDS011;17473;52.286;20.930;2022-09-03T05:35:34;9.52;;;3.20;;
30723;SDS011;17473;52.286;20.930;2022-09-03T05:38:28;13.57;;;3.40;;
30723;SDS011;17473;52.286;20.930;2022-09-03T05:41:23;7.93;;;2.42;;
30723;SDS011;17473;52.286;20.930;2022-09-03T05:44:19;11.00;;;3.00;;
30723;SDS011;17473;52.286;20.930;2022-09-03T05:47:16;9.95;;;3.50;;
30723;SDS011;17473;52.286;20.930;2022-09-03T05:50:10;12.63;;;3.63;;
30723;SDS011;17473;52.286;20.930;2022-09-03T05:53:04;9.80;;;2.78;;
30723;SDS011;17473;52.286;20.930;2022-09-03T05:56:00;10.70;;;3.08;;
30723;SDS011;17473;52.286;20.930;2022-09-03T05:58:59;13.25;;;3.22;;
30723;SDS011;17473;52.286;20.930;2022-09-03T06:01:58;8.63;;;2.50;;
30723;SDS011;17473;52.286;20.930;2022-09-03T06:04:52;7.25;;;2.97;;
30723;SDS011;17473;52.286;20.930;2022-09-03T06:10:18;8.57;;;3.25;;
30723;SDS011;17473;52.286;20.930;2022-09-03T06:12:52;8.50;;;2.90;;
30723;SDS011;17473;52.286;20.930;2022-09-03T06:15:19;7.72;;;3.20;;
30723;SDS011;17473;52.286;20.930;2022-09-03T06:17:46;6.60;;;3.20;;
30723;SDS011;17473;52.286;20.930;2022-09-03T06:20:13;19.08;;;2.90;;
30723;SDS011;17473;52.286;20.930;2022-09-03T06:22:40;8.43;;;2.58;;
30723;SDS011;17473;52.286;20.930;2022-09-03T06:25:07;8.45;;;2.90;;
30723;SDS011;17473;52.286;20.930;2022-09-03T06:27:35;6.70;;;2.72;;
30723;SDS011;17473;52.286;20.930;2022-09-03T06:30:02;11.18;;;3.38;;
30723;SDS011;17473;52.286;20.930;2022-09-03T06:32:29;8.57;;;2.75;;
30723;SDS011;17473;52.286;20.930;2022-09-03T06:34:56;8.13;;;3.00;;
30723;SDS011;17473;52.286;20.930;2022-09-03T06:37:23;10.30;;;2.95;;
30723;SDS011;17473;52.286;20.930;2022-09-03T06:39:50;5.90;;;2.97;;
30723;SDS011;17473;52.286;20.930;2022-09-03T06:42:18;14.20;;;2.70;;
30723;SDS011;17473;52.286;20.930;2022-09-03T06:44:45;13.80;;;4.00;;
30723;SDS011;17473;52.286;20.930;2022-09-03T06:47:41;10.82;;;2.92;;
30723;SDS011;17473;52.286;20.930;2022-09-03T06:50:35;6.53;;;3.05;;
30723;SDS011;17473;52.286;20.930;2022-09-03T06:53:31;5.10;;;2.70;;
30723;SDS011;17473;52.286;20.930;2022-09-03T06:56:28;10.45;;;3.60;;
30723;SDS011;17473;52.286;20.930;2022-09-03T06:59:23;10.18;;;2.33;;
30723;SDS011;17473;52.286;20.930;2022-09-03T07:02:17;9.95;;;2.72;;
30723;SDS011;17473;52.286;20.930;2022-09-03T07:05:15;7.68;;;2.45;;
30723;SDS011;17473;52.286;20.930;2022-09-03T07:08:10;14.55;;;2.92;;
30723;SDS011;17473;52.286;20.930;2022-09-03T07:10:37;10.25;;;2.80;;
30723;SDS011;17473;52.286;20.930;2022-09-03T07:13:04;10.73;;;2.67;;
30723;SDS011;17473;52.286;20.930;2022-09-03T07:15:32;5.70;;;2.63;;
30723;SDS011;17473;52.286;20.930;2022-09-03T07:17:59;5.65;;;2.40;;
30723;SDS011;17473;52.286;20.930;2022-09-03T07:20:26;7.10;;;2.72;;
30723;SDS011;17473;52.286;20.930;2022-09-03T07:22:53;10.15;;;3.03;;
30723;SDS011;17473;52.286;20.930;2022-09-03T07:25:22;7.70;;;2.80;;
30723;SDS011;17473;52.286;20.930;2022-09-03T07:27:51;12.77;;;4.03;;
30723;SDS011;17473;52.286;20.930;2022-09-03T07:30:18;5.50;;;2.97;;
30723;SDS011;17473;52.286;20.930;2022-09-03T07:32:46;9.35;;;2.90;;
30723;SDS011;17473;52.286;20.930;2022-09-03T07:35:16;13.13;;;2.75;;
30723;SDS011;17473;52.286;20.930;2022-09-03T07:37:46;13.50;;;2.83;;
30723;SDS011;17473;52.286;20.930;2022-09-03T07:40:13;5.07;;;2.47;;
30723;SDS011;17473;52.286;20.930;2022-09-03T07:42:43;8.77;;;3.13;;
30723;SDS011;17473;52.286;20.930;2022-09-03T07:45:10;4.82;;;2.40;;
30723;SDS011;17473;52.286;20.930;2022-09-03T07:47:47;6.20;;;2.75;;
30723;SDS011;17473;52.286;20.930;2022-09-03T07:50:21;9.48;;;2.33;;
30723;SDS011;17473;52.286;20.930;2022-09-03T07:52:49;18.42;;;2.90;;
30723;SDS011;17473;52.286;20.930;2022-09-03T07:55:29;7.20;;;2.70;;
30723;SDS011;17473;52.286;20.930;2022-09-03T07:57:56;7.13;;;2.75;;
30723;SDS011;17473;52.286;20.930;2022-09-03T08:00:24;10.40;;;3.45;;
30723;SDS011;17473;52.286;20.930;2022-09-03T08:02:53;11.63;;;3.30;;
30723;SDS011;17473;52.286;20.930;2022-09-03T08:05:21;8.73;;;2.78;;
30723;SDS011;17473;52.286;20.930;2022-09-03T08:07:48;6.57;;;2.40;;
30723;SDS011;17473;52.286;20.930;2022-09-03T08:10:16;9.27;;;2.50;;
30723;SDS011;17473;52.286;20.930;2022-09-03T08:12:43;7.88;;;2.55;;
30723;SDS011;17473;52.286;20.930;2022-09-03T08:15:10;9.68;;;4.18;;
30723;SDS011;17473;52.286;20.930;2022-09-03T08:17:37;12.43;;;2.70;;
30723;SDS011;17473;52.286;20.930;2022-09-03T08:20:04;13.23;;;3.03;;
30723;SDS011;17473;52.286;20.930;2022-09-03T08:22:31;7.55;;;2.25;;
30723;SDS011;17473;52.286;20.930;2022-09-03T08:24:59;7.55;;;2.25;;
30723;SDS011;17473;52.286;20.930;2022-09-03T08:27:26;3.03;;;1.85;;
30723;SDS011;17473;52.286;20.930;2022-09-03T08:29:54;11.55;;;1.90;;
30723;SDS011;17473;52.286;20.930;2022-09-03T08:32:21;4.97;;;2.50;;
30723;SDS011;17473;52.286;20.930;2022-09-03T08:34:48;7.45;;;2.00;;
30723;SDS011;17473;52.286;20.930;2022-09-03T08:37:17;5.57;;;1.90;;
30723;SDS011;17473;52.286;20.930;2022-09-03T08:39:44;6.35;;;2.10;;
30723;SDS011;17473;52.286;20.930;2022-09-03T08:45:07;5.97;;;2.00;;
30723;SDS011;17473;52.286;20.930;2022-09-03T08:47:46;5.45;;;1.77;;
30723;SDS011;17473;52.286;20.930;2022-09-03T08:50:22;5.13;;;2.35;;
30723;SDS011;17473;52.286;20.930;2022-09-03T08:52:58;3.42;;;2.17;;
30723;SDS011;17473;52.286;20.930;2022-09-03T08:58:34;2.63;;;1.83;;
30723;SDS011;17473;52.286;20.930;2022-09-03T09:01:12;4.32;;;1.80;;
30723;SDS011;17473;52.286;20.930;2022-09-03T09:04:04;4.10;;;1.90;;
30723;SDS011;17473;52.286;20.930;2022-09-03T09:07:06;9.25;;;2.45;;
30723;SDS011;17473;52.286;20.930;2022-09-03T09:09:54;4.55;;;1.90;;
30723;SDS011;17473;52.286;20.930;2022-09-03T09:22:00;3.55;;;1.85;;
30723;SDS011;17473;52.286;20.930;2022-09-03T09:24:49;5.32;;;2.63;;
30723;SDS011;17473;52.286;20.930;2022-09-03T09:27:19;3.40;;;1.85;;
30723;SDS011;17473;52.286;20.930;2022-09-03T09:29:47;5.85;;;1.60;;
30723;SDS011;17473;52.286;20.930;2022-09-03T09:32:18;3.25;;;2.00;;
30723;SDS011;17473;52.286;20.930;2022-09-03T09:34:47;5.07;;;1.58;;
30723;SDS011;17473;52.286;20.930;2022-09-03T09:37:17;2.75;;;1.70;;
30723;SDS011;17473;52.286;20.930;2022-09-03T09:39:58;5.53;;;1.77;;
30723;SDS011;17473;52.286;20.930;2022-09-03T09:42:26;5.60;;;1.77;;
30723;SDS011;17473;52.286;20.930;2022-09-03T09:44:56;4.13;;;1.42;;
30723;SDS011;17473;52.286;20.930;2022-09-03T09:47:36;5.53;;;1.50;;
30723;SDS011;17473;52.286;20.930;2022-09-03T09:50:14;3.45;;;1.83;;
30723;SDS011;17473;52.286;20.930;2022-09-03T09:55:55;1.90;;;1.40;;
30723;SDS011;17473;52.286;20.930;2022-09-03T09:58:26;1.80;;;1.15;;
30723;SDS011;17473;52.286;20.930;2022-09-03T10:01:02;1.58;;;1.30;;
30723;SDS011;17473;52.286;20.930;2022-09-03T10:07:14;2.00;;;1.25;;
30723;SDS011;17473;52.286;20.930;2022-09-03T10:10:24;5.03;;;1.60;;
30723;SDS011;17473;52.286;20.930;2022-09-03T10:12:52;2.03;;;1.60;;
30723;SDS011;17473;52.286;20.930;2022-09-03T10:15:54;3.28;;;1.50;;
30723;SDS011;17473;52.286;20.930;2022-09-03T10:18:41;6.00;;;1.60;;
30723;SDS011;17473;52.286;20.930;2022-09-03T10:27:23;4.00;;;1.70;;
30723;SDS011;17473;52.286;20.930;2022-09-03T10:29:51;5.78;;;1.35;;
30723;SDS011;17473;52.286;20.930;2022-09-03T10:35:19;4.60;;;1.48;;
30723;SDS011;17473;52.286;20.930;2022-09-03T10:38:15;4.20;;;1.50;;
30723;SDS011;17473;52.286;20.930;2022-09-03T10:47:27;6.65;;;1.95;;
30723;SDS011;17473;52.286;20.930;2022-09-03T11:07:43;5.75;;;1.55;;
30723;SDS011;17473;52.286;20.930;2022-09-03T11:10:27;3.70;;;2.03;;
30723;SDS011;17473;52.286;20.930;2022-09-03T11:15:43;6.55;;;1.70;;
30723;SDS011;17473;52.286;20.930;2022-09-03T11:18:23;3.95;;;1.88;;
30723;SDS011;17473;52.286;20.930;2022-09-03T11:21:17;3.63;;;1.55;;
30723;SDS011;17473;52.286;20.930;2022-09-03T11:24:31;3.28;;;1.55;;
30723;SDS011;17473;52.286;20.930;2022-09-03T11:26:54;3.80;;;1.58;;
30723;SDS011;17473;52.286;20.930;2022-09-03T11:32:59;2.60;;;1.60;;
30723;SDS011;17473;52.286;20.930;2022-09-03T11:38:04;5.75;;;3.13;;
30723;SDS011;17473;52.286;20.930;2022-09-03T11:40:53;2.67;;;1.40;;
30723;SDS011;17473;52.286;20.930;2022-09-03T11:43:26;4.82;;;1.38;;
30723;SDS011;17473;52.286;20.930;2022-09-03T11:46:12;2.03;;;1.45;;
30723;SDS011;17473;52.286;20.930;2022-09-03T11:48:50;3.45;;;1.27;;
30723;SDS011;17473;52.286;20.930;2022-09-03T11:56:39;2.88;;;1.52;;
30723;SDS011;17473;52.286;20.930;2022-09-03T12:04:25;2.10;;;1.17;;
30723;SDS011;17473;52.286;20.930;2022-09-03T12:10:29;2.50;;;1.00;;
30723;SDS011;17473;52.286;20.930;2022-09-03T12:16:19;2.35;;;1.13;;
30723;SDS011;17473;52.286;20.930;2022-09-03T12:19:10;4.00;;;0.90;;
30723;SDS011;17473;52.286;20.930;2022-09-03T12:21:53;1.67;;;1.30;;
30723;SDS011;17473;52.286;20.930;2022-09-03T12:24:21;2.05;;;1.08;;
30723;SDS011;17473;52.286;20.930;2022-09-03T12:27:03;2.65;;;1.00;;
30723;SDS011;17473;52.286;20.930;2022-09-03T12:29:31;1.10;;;0.88;;
30723;SDS011;17473;52.286;20.930;2022-09-03T12:32:05;1.60;;;1.15;;
30723;SDS011;17473;52.286;20.930;2022-09-03T12:34:36;5.05;;;1.27;;
30723;SDS011;17473;52.286;20.930;2022-09-03T12:37:03;1.73;;;1.00;;
30723;SDS011;17473;52.286;20.930;2022-09-03T12:40:14;3.17;;;1.48;;
30723;SDS011;17473;52.286;20.930;2022-09-03T12:42:48;2.40;;;1.00;;
30723;SDS011;17473;52.286;20.930;2022-09-03T12:45:19;4.13;;;1.05;;
30723;SDS011;17473;52.286;20.930;2022-09-03T12:48:12;3.67;;;1.08;;
30723;SDS011;17473;52.286;20.930;2022-09-03T12:50:44;1.15;;;1.00;;
30723;SDS011;17473;52.286;20.930;2022-09-03T12:53:23;2.75;;;1.13;;
30723;SDS011;17473;52.286;20.930;2022-09-03T12:55:55;5.85;;;1.25;;
30723;SDS011;17473;52.286;20.930;2022-09-03T12:58:30;2.40;;;0.98;;
30723;SDS011;17473;52.286;20.930;2022-09-03T13:01:06;4.85;;;1.20;;
30723;SDS011;17473;52.286;20.930;2022-09-03T13:04:23;4.30;;;1.13;;
30723;SDS011;17473;52.286;20.930;2022-09-03T13:06:58;2.03;;;0.90;;
30723;SDS011;17473;52.286;20.930;2022-09-03T13:09:31;6.43;;;1.30;;
30723;SDS011;17473;52.286;20.930;2022-09-03T13:12:02;2.83;;;1.30;;
30723;SDS011;17473;52.286;20.930;2022-09-03T13:14:41;2.13;;;0.98;;
30723;SDS011;17473;52.286;20.930;2022-09-03T13:20:04;3.47;;;1.10;;
30723;SDS011;17473;52.286;20.930;2022-09-03T13:31:29;2.70;;;1.10;;
30723;SDS011;17473;52.286;20.930;2022-09-03T13:34:19;2.38;;;1.15;;
30723;SDS011;17473;52.286;20.930;2022-09-03T13:36:57;2.25;;;1.33;;
30723;SDS011;17473;52.286;20.930;2022-09-03T13:39:52;1.67;;;1.30;;
30723;SDS011;17473;52.286;20.930;2022-09-03T13:42:38;1.48;;;1.08;;
30723;SDS011;17473;52.286;20.930;2022-09-03T13:51:10;1.27;;;0.98;;
30723;SDS011;17473;52.286;20.930;2022-09-03T13:56:41;4.60;;;1.00;;
30723;SDS011;17473;52.286;20.930;2022-09-03T13:59:34;2.35;;;1.30;;
30723;SDS011;17473;52.286;20.930;2022-09-03T14:11:31;1.45;;;0.88;;
30723;SDS011;17473;52.286;20.930;2022-09-03T14:14:28;1.23;;;1.13;;
30723;SDS011;17473;52.286;20.930;2022-09-03T14:17:15;5.65;;;1.42;;
30723;SDS011;17473;52.286;20.930;2022-09-03T14:26:14;0.70;;;0.70;;
30723;SDS011;17473;52.286;20.930;2022-09-03T14:34:59;2.17;;;1.10;;
30723;SDS011;17473;52.286;20.930;2022-09-03T14:41:02;3.22;;;0.93;;
30723;SDS011;17473;52.286;20.930;2022-09-03T14:49:59;1.45;;;0.90;;
30723;SDS011;17473;52.286;20.930;2022-09-03T14:59:14;2.33;;;1.13;;
30723;SDS011;17473;52.286;20.930;2022-09-03T15:02:11;4.38;;;1.20;;
30723;SDS011;17473;52.286;20.930;2022-09-03T15:04:50;1.35;;;0.88;;
30723;SDS011;17473;52.286;20.930;2022-09-03T15:10:38;3.05;;;1.05;;
30723;SDS011;17473;52.286;20.930;2022-09-03T15:13:22;3.58;;;1.30;;
30723;SDS011;17473;52.286;20.930;2022-09-03T15:16:11;1.45;;;0.95;;
30723;SDS011;17473;52.286;20.930;2022-09-03T15:27:29;3.67;;;1.02;;
30723;SDS011;17473;52.286;20.930;2022-09-03T15:33:55;2.58;;;1.10;;
30723;SDS011;17473;52.286;20.930;2022-09-03T15:36:35;1.02;;;0.90;;
30723;SDS011;17473;52.286;20.930;2022-09-03T15:39:21;1.83;;;0.90;;
30723;SDS011;17473;52.286;20.930;2022-09-03T15:42:03;1.27;;;0.98;;
30723;SDS011;17473;52.286;20.930;2022-09-03T15:44:34;1.38;;;1.02;;
30723;SDS011;17473;52.286;20.930;2022-09-03T15:47:27;1.60;;;1.17;;
30723;SDS011;17473;52.286;20.930;2022-09-03T15:50:33;1.13;;;0.90;;
30723;SDS011;17473;52.286;20.930;2022-09-03T15:53:26;1.50;;;1.30;;
30723;SDS011;17473;52.286;20.930;2022-09-03T15:56:21;3.20;;;1.38;;
30723;SDS011;17473;52.286;20.930;2022-09-03T15:59:27;3.92;;;1.35;;
30723;SDS011;17473;52.286;20.930;2022-09-03T16:02:16;4.65;;;1.20;;
30723;SDS011;17473;52.286;20.930;2022-09-03T16:10:15;3.80;;;1.20;;
30723;SDS011;17473;52.286;20.930;2022-09-03T16:16:05;3.08;;;1.30;;
30723;SDS011;17473;52.286;20.930;2022-09-03T16:18:52;1.70;;;1.23;;
30723;SDS011;17473;52.286;20.930;2022-09-03T16:27:25;1.95;;;1.40;;
30723;SDS011;17473;52.286;20.930;2022-09-03T16:35:56;4.25;;;0.95;;
30723;SDS011;17473;52.286;20.930;2022-09-03T16:48:10;1.40;;;1.00;;
30723;SDS011;17473;52.286;20.930;2022-09-03T16:54:11;2.40;;;1.27;;
30723;SDS011;17473;52.286;20.930;2022-09-03T16:56:55;2.13;;;1.27;;
30723;SDS011;17473;52.286;20.930;2022-09-03T17:02:57;2.45;;;1.33;;
30723;SDS011;17473;52.286;20.930;2022-09-03T17:06:14;3.72;;;1.35;;
30723;SDS011;17473;52.286;20.930;2022-09-03T17:12:37;4.18;;;1.63;;
30723;SDS011;17473;52.286;20.930;2022-09-03T17:15:21;1.88;;;1.30;;
30723;SDS011;17473;52.286;20.930;2022-09-03T17:24:18;5.50;;;1.75;;
30723;SDS011;17473;52.286;20.930;2022-09-03T17:30:07;2.60;;;1.52;;
30723;SDS011;17473;52.286;20.930;2022-09-03T17:35:53;5.35;;;1.95;;
30723;SDS011;17473;52.286;20.930;2022-09-03T17:41:42;2.47;;;1.80;;
30723;SDS011;17473;52.286;20.930;2022-09-03T17:50:20;4.18;;;2.13;;
30723;SDS011;17473;52.286;20.930;2022-09-03T17:52:52;12.73;;;2.70;;
30723;SDS011;17473;52.286;20.930;2022-09-03T18:03:51;7.78;;;2.40;;
30723;SDS011;17473;52.286;20.930;2022-09-03T18:06:27;3.95;;;2.40;;
30723;SDS011;17473;52.286;20.930;2022-09-03T18:09:11;6.25;;;2.60;;
30723;SDS011;17473;52.286;20.930;2022-09-03T18:17:42;6.20;;;2.33;;
30723;SDS011;17473;52.286;20.930;2022-09-03T18:20:16;9.45;;;3.25;;
30723;SDS011;17473;52.286;20.930;2022-09-03T18:26:13;10.27;;;2.80;;
30723;SDS011;17473;52.286;20.930;2022-09-03T18:29:14;5.22;;;2.22;;
30723;SDS011;17473;52.286;20.930;2022-09-03T18:32:09;9.88;;;2.92;;
30723;SDS011;17473;52.286;20.930;2022-09-03T18:34:56;7.47;;;3.63;;
30723;SDS011;17473;52.286;20.930;2022-09-03T18:37:42;11.20;;;3.40;;
30723;SDS011;17473;52.286;20.930;2022-09-03T18:40:30;3.50;;;2.45;;
30723;SDS011;17473;52.286;20.930;2022-09-03T18:47:05;8.32;;;2.50;;
30723;SDS011;17473;52.286;20.930;2022-09-03T18:54:02;11.07;;;3.40;;
30723;SDS011;17473;52.286;20.930;2022-09-03T18:57:29;7.80;;;3.53;;
30723;SDS011;17473;52.286;20.930;2022-09-03T19:00:40;6.90;;;3.13;;
30723;SDS011;17473;52.286;20.930;2022-09-03T19:06:57;7.75;;;2.65;;
30723;SDS011;17473;52.286;20.930;2022-09-03T19:10:01;10.30;;;3.08;;
30723;SDS011;17473;52.286;20.930;2022-09-03T19:16:24;8.25;;;2.67;;
30723;SDS011;17473;52.286;20.930;2022-09-03T19:22:43;5.75;;;3.22;;
30723;SDS011;17473;52.286;20.930;2022-09-03T19:25:29;4.82;;;2.85;;
30723;SDS011;17473;52.286;20.930;2022-09-03T19:28:22;7.10;;;3.47;;
30723;SDS011;17473;52.286;20.930;2022-09-03T19:37:40;7.30;;;3.20;;
30723;SDS011;17473;52.286;20.930;2022-09-03T19:47:03;5.70;;;3.42;;
30723;SDS011;17473;52.286;20.930;2022-09-03T19:50:04;10.02;;;3.83;;
30723;SDS011;17473;52.286;20.930;2022-09-03T19:53:03;10.77;;;4.05;;
30723;SDS011;17473;52.286;20.930;2022-09-03T19:56:00;7.35;;;3.90;;
30723;SDS011;17473;52.286;20.930;2022-09-03T19:58:55;9.27;;;3.42;;
30723;SDS011;17473;52.286;20.930;2022-09-03T20:01:54;7.40;;;3.78;;
30723;SDS011;17473;52.286;20.930;2022-09-03T20:04:47;12.07;;;4.00;;
30723;SDS011;17473;52.286;20.930;2022-09-03T20:07:41;9.80;;;3.95;;
30723;SDS011;17473;52.286;20.930;2022-09-03T20:10:28;8.80;;;3.47;;
30723;SDS011;17473;52.286;20.930;2022-09-03T20:13:00;9.73;;;3.90;;
30723;SDS011;17473;52.286;20.930;2022-09-03T20:18:57;6.85;;;3.65;;
30723;SDS011;17473;52.286;20.930;2022-09-03T20:21:41;4.20;;;3.10;;
30723;SDS011;17473;52.286;20.930;2022-09-03T20:30:44;5.10;;;3.28;;
30723;SDS011;17473;52.286;20.930;2022-09-03T20:36:22;6.15;;;3.20;;
30723;SDS011;17473;52.286;20.930;2022-09-03T20:42:11;8.00;;;3.42;;
30723;SDS011;17473;52.286;20.930;2022-09-03T20:48:04;8.60;;;3.53;;
30723;SDS011;17473;52.286;20.930;2022-09-03T20:51:15;10.75;;;3.70;;
30723;SDS011;17473;52.286;20.930;2022-09-03T21:02:22;8.52;;;3.10;;
30723;SDS011;17473;52.286;20.930;2022-09-03T21:10:40;7.95;;;3.95;;
30723;SDS011;17473;52.286;20.930;2022-09-03T21:13:37;7.55;;;3.22;;
30723;SDS011;17473;52.286;20.930;2022-09-03T21:21:55;8.02;;;4.00;;
30723;SDS011;17473;52.286;20.930;2022-09-03T21:24:31;6.13;;;3.78;;
30723;SDS011;17473;52.286;20.930;2022-09-03T21:27:12;6.63;;;4.03;;
30723;SDS011;17473;52.286;20.930;2022-09-03T21:29:46;7.53;;;3.70;;
30723;SDS011;17473;52.286;20.930;2022-09-03T21:32:49;8.85;;;4.50;;
30723;SDS011;17473;52.286;20.930;2022-09-03T21:35:41;11.63;;;5.20;;
30723;SDS011;17473;52.286;20.930;2022-09-03T21:38:19;8.05;;;5.30;;
30723;SDS011;17473;52.286;20.930;2022-09-03T21:44:29;10.55;;;5.10;;
30723;SDS011;17473;52.286;20.930;2022-09-03T21:48:28;9.18;;;5.57;;
30723;SDS011;17473;52.286;20.930;2022-09-03T21:51:45;12.40;;;5.95;;
30723;SDS011;17473;52.286;20.930;2022-09-03T21:54:51;9.95;;;6.22;;
30723;SDS011;17473;52.286;20.930;2022-09-03T22:04:50;24.42;;;8.30;;
30723;SDS011;17473;52.286;20.930;2022-09-03T22:17:10;19.08;;;8.48;;
30723;SDS011;17473;52.286;20.930;2022-09-03T22:20:38;18.63;;;8.63;;
30723;SDS011;17473;52.286;20.930;2022-09-03T22:24:02;18.58;;;8.88;;
30723;SDS011;17473;52.286;20.930;2022-09-03T22:30:13;20.05;;;8.20;;
30723;SDS011;17473;52.286;20.930;2022-09-03T22:36:52;20.98;;;9.50;;
30723;SDS011;17473;52.286;20.930;2022-09-03T22:40:11;19.38;;;9.20;;
30723;SDS011;17473;52.286;20.930;2022-09-03T22:43:44;16.00;;;9.63;;
30723;SDS011;17473;52.286;20.930;2022-09-03T22:46:53;21.80;;;9.40;;
30723;SDS011;17473;52.286;20.930;2022-09-03T22:57:08;14.05;;;8.02;;
30723;SDS011;17473;52.286;20.930;2022-09-03T23:00:08;25.17;;;9.43;;
30723;SDS011;17473;52.286;20.930;2022-09-03T23:03:07;23.48;;;9.45;;
30723;SDS011;17473;52.286;20.930;2022-09-03T23:06:13;21.08;;;9.07;;
30723;SDS011;17473;52.286;20.930;2022-09-03T23:15:53;20.45;;;9.75;;
30723;SDS011;17473;52.286;20.930;2022-09-03T23:18:58;29.67;;;9.30;;
30723;SDS011;17473;52.286;20.930;2022-09-03T23:22:09;15.88;;;9.30;;
30723;SDS011;17473;52.286;20.930;2022-09-03T23:25:22;19.43;;;9.40;;
30723;SDS011;17473;52.286;20.930;2022-09-03T23:28:31;17.15;;;9.50;;
30723;SDS011;17473;52.286;20.930;2022-09-03T23:31:29;18.73;;;9.43;;
30723;SDS011;17473;52.286;20.930;2022-09-03T23:34:27;17.85;;;9.32;;
30723;SDS011;17473;52.286;20.930;2022-09-03T23:40:49;17.23;;;8.75;;
